UPS6192 KRDU-KFLL
Flight info
| Callsign | UPS6192 |
|---|---|
| Flight time | N/A |
| Altitude | 34000 |
| Route | ROZBO5 ROZBO GARIC/N0464F340 JRDAN Y291 MAJIK CUUDA3 |
| Aircraft | A306/H-SDE3FGHIRWY/LB1 |
Departure
| Time | 2026-05-03 20:15 |
|---|---|
| Airport | Raleigh-Durham International Airport (KRDU) |
Arrival
| Time | N/A |
|---|---|
| Airport | Fort Lauderdale Hollywood International Airport (KFLL) |
| Time | Latitude | Longitude | Altitude | Speed | Heading |
|---|---|---|---|---|---|
| 2026-05-03 20:15 | 35.89903 | -78.77158 | 1178 ft | 176 kts | 44° |
| 2026-05-03 20:15 | 35.90758 | -78.76063 | 2069 ft | 178 kts | 43° |
| 2026-05-03 20:15 | 35.91579 | -78.74896 | 2837 ft | 182 kts | 57° |
| 2026-05-03 20:15 | 35.92056 | -78.73468 | 3687 ft | 180 kts | 74° |
| 2026-05-03 20:16 | 35.92050 | -78.71893 | 4247 ft | 198 kts | 110° |
| 2026-05-03 20:16 | 35.91111 | -78.70561 | 4614 ft | 222 kts | 155° |
| 2026-05-03 20:16 | 35.89547 | -78.70221 | 4970 ft | 247 kts | 185° |
| 2026-05-03 20:16 | 35.87766 | -78.70382 | 5522 ft | 264 kts | 187° |
| 2026-05-03 20:17 | 35.85890 | -78.70534 | 6274 ft | 276 kts | 187° |
| 2026-05-03 20:17 | 35.83933 | -78.70621 | 7058 ft | 285 kts | 186° |
| 2026-05-03 20:17 | 35.81940 | -78.70662 | 7961 ft | 288 kts | 185° |
| 2026-05-03 20:17 | 35.79928 | -78.70682 | 8931 ft | 291 kts | 185° |
| 2026-05-03 20:18 | 35.77895 | -78.70691 | 9626 ft | 294 kts | 185° |
| 2026-05-03 20:18 | 35.75833 | -78.70695 | 9932 ft | 297 kts | 185° |
| 2026-05-03 20:18 | 35.73762 | -78.70695 | 10070 ft | 299 kts | 185° |
| 2026-05-03 20:18 | 35.71634 | -78.70695 | 10343 ft | 314 kts | 185° |
| 2026-05-03 20:19 | 35.69379 | -78.70700 | 10644 ft | 334 kts | 185° |
| 2026-05-03 20:19 | 35.66994 | -78.70702 | 10947 ft | 352 kts | 185° |
| 2026-05-03 20:19 | 35.64491 | -78.70702 | 11263 ft | 368 kts | 185° |
| 2026-05-03 20:19 | 35.61878 | -78.70698 | 11588 ft | 381 kts | 185° |
| 2026-05-03 20:20 | 35.59199 | -78.70690 | 12107 ft | 388 kts | 185° |
| 2026-05-03 20:20 | 35.56486 | -78.70682 | 12703 ft | 392 kts | 185° |
| 2026-05-03 20:20 | 35.53741 | -78.70677 | 13319 ft | 396 kts | 185° |
| 2026-05-03 20:20 | 35.50968 | -78.70568 | 13917 ft | 403 kts | 180° |
| 2026-05-03 20:21 | 35.48162 | -78.70216 | 14476 ft | 408 kts | 179° |
| 2026-05-03 20:21 | 35.45334 | -78.69807 | 15007 ft | 411 kts | 178° |
| 2026-05-03 20:21 | 35.42478 | -78.69389 | 15555 ft | 415 kts | 179° |
| 2026-05-03 20:21 | 35.39595 | -78.68971 | 16102 ft | 419 kts | 179° |
| 2026-05-03 20:22 | 35.36689 | -78.68553 | 16660 ft | 422 kts | 179° |
| 2026-05-03 20:22 | 35.33764 | -78.68132 | 17220 ft | 425 kts | 179° |
| 2026-05-03 20:22 | 35.30817 | -78.67709 | 17743 ft | 428 kts | 179° |
| 2026-05-03 20:22 | 35.27847 | -78.67284 | 18246 ft | 432 kts | 179° |
| 2026-05-03 20:23 | 35.24847 | -78.66856 | 18717 ft | 435 kts | 180° |
| 2026-05-03 20:23 | 35.21836 | -78.66427 | 19154 ft | 437 kts | 180° |
| 2026-05-03 20:23 | 35.18814 | -78.65995 | 19660 ft | 438 kts | 180° |
| 2026-05-03 20:23 | 35.15782 | -78.65563 | 20088 ft | 440 kts | 180° |
| 2026-05-03 20:24 | 35.12733 | -78.65129 | 20492 ft | 442 kts | 180° |
| 2026-05-03 20:24 | 35.09668 | -78.64694 | 20905 ft | 445 kts | 180° |
| 2026-05-03 20:24 | 35.06585 | -78.64256 | 21338 ft | 447 kts | 180° |
| 2026-05-03 20:24 | 35.03529 | -78.63822 | 21745 ft | 449 kts | 180° |
| 2026-05-03 20:25 | 35.00416 | -78.63381 | 22146 ft | 452 kts | 180° |
| 2026-05-03 20:25 | 34.97287 | -78.62805 | 22545 ft | 459 kts | 175° |
| 2026-05-03 20:25 | 34.94192 | -78.61702 | 22951 ft | 469 kts | 166° |
| 2026-05-03 20:25 | 34.91177 | -78.60137 | 23349 ft | 474 kts | 162° |
| 2026-05-03 20:26 | 34.88189 | -78.58396 | 23695 ft | 478 kts | 160° |
| 2026-05-03 20:26 | 34.85208 | -78.56565 | 23987 ft | 481 kts | 159° |
| 2026-05-03 20:26 | 34.82227 | -78.54704 | 24273 ft | 483 kts | 159° |
| 2026-05-03 20:26 | 34.79230 | -78.52839 | 24580 ft | 484 kts | 160° |
| 2026-05-03 20:27 | 34.76222 | -78.50984 | 24861 ft | 486 kts | 160° |
| 2026-05-03 20:27 | 34.73198 | -78.49139 | 25145 ft | 487 kts | 160° |
| 2026-05-03 20:27 | 34.70158 | -78.47298 | 25423 ft | 488 kts | 160° |
| 2026-05-03 20:27 | 34.67114 | -78.45464 | 25712 ft | 489 kts | 161° |
| 2026-05-03 20:28 | 34.64065 | -78.43632 | 25993 ft | 490 kts | 161° |
| 2026-05-03 20:28 | 34.61002 | -78.41795 | 26243 ft | 492 kts | 161° |
| 2026-05-03 20:28 | 34.57931 | -78.39954 | 26488 ft | 493 kts | 161° |
| 2026-05-03 20:28 | 34.54851 | -78.38109 | 26722 ft | 495 kts | 161° |
| 2026-05-03 20:29 | 34.51762 | -78.36259 | 26962 ft | 496 kts | 161° |
| 2026-05-03 20:29 | 34.48663 | -78.34404 | 27187 ft | 498 kts | 161° |
| 2026-05-03 20:29 | 34.45553 | -78.32543 | 27413 ft | 499 kts | 161° |
| 2026-05-03 20:29 | 34.42444 | -78.30683 | 27710 ft | 498 kts | 162° |
| 2026-05-03 20:30 | 34.39344 | -78.28826 | 28034 ft | 497 kts | 162° |
| 2026-05-03 20:30 | 34.36246 | -78.26974 | 28369 ft | 496 kts | 162° |
| 2026-05-03 20:30 | 34.33150 | -78.25127 | 28692 ft | 495 kts | 162° |
| 2026-05-03 20:30 | 34.30061 | -78.23287 | 29015 ft | 495 kts | 162° |
| 2026-05-03 20:31 | 34.26977 | -78.21451 | 29338 ft | 494 kts | 163° |
| 2026-05-03 20:31 | 34.23898 | -78.19620 | 29684 ft | 493 kts | 163° |
| 2026-05-03 20:31 | 34.20821 | -78.17791 | 30017 ft | 492 kts | 163° |
| 2026-05-03 20:31 | 34.17791 | -78.15991 | 30321 ft | 491 kts | 163° |
| 2026-05-03 20:32 | 34.14728 | -78.14175 | 30532 ft | 491 kts | 164° |
| 2026-05-03 20:32 | 34.11655 | -78.12355 | 30718 ft | 493 kts | 164° |
| 2026-05-03 20:32 | 34.08577 | -78.10534 | 30977 ft | 492 kts | 164° |
| 2026-05-03 20:32 | 34.05504 | -78.08714 | 31273 ft | 491 kts | 164° |
| 2026-05-03 20:33 | 34.02443 | -78.06902 | 31585 ft | 490 kts | 165° |
| 2026-05-03 20:33 | 33.99388 | -78.05094 | 31868 ft | 489 kts | 165° |
| 2026-05-03 20:33 | 33.96337 | -78.03291 | 32156 ft | 488 kts | 165° |
| 2026-05-03 20:33 | 33.93292 | -78.01494 | 32450 ft | 487 kts | 165° |
| 2026-05-03 20:34 | 33.90238 | -77.99769 | 32735 ft | 479 kts | 170° |
| 2026-05-03 20:34 | 33.87122 | -77.98572 | 33005 ft | 461 kts | 180° |
| 2026-05-03 20:34 | 33.84022 | -77.97995 | 33433 ft | 445 kts | 187° |
| 2026-05-03 20:34 | 33.80962 | -77.97671 | 33781 ft | 439 kts | 189° |
| 2026-05-03 20:35 | 33.77926 | -77.97450 | 34065 ft | 436 kts | 190° |
| 2026-05-03 20:35 | 33.71858 | -77.97132 | 34132 ft | 436 kts | 191° |
| 2026-05-03 20:36 | 33.65802 | -77.96820 | 34130 ft | 436 kts | 191° |
| 2026-05-03 20:36 | 33.59749 | -77.96474 | 34124 ft | 435 kts | 190° |
| 2026-05-03 20:37 | 33.53713 | -77.96109 | 34137 ft | 434 kts | 190° |
| 2026-05-03 20:37 | 33.47689 | -77.95744 | 34131 ft | 433 kts | 190° |
| 2026-05-03 20:38 | 33.41665 | -77.95382 | 34138 ft | 433 kts | 190° |
| 2026-05-03 20:38 | 33.35641 | -77.95022 | 34096 ft | 433 kts | 190° |
| 2026-05-03 20:39 | 33.29623 | -77.94660 | 34144 ft | 433 kts | 190° |
| 2026-05-03 20:39 | 33.23614 | -77.94300 | 34143 ft | 432 kts | 190° |
| 2026-05-03 20:40 | 33.17605 | -77.93942 | 34142 ft | 432 kts | 190° |
| 2026-05-03 20:40 | 33.11598 | -77.93584 | 34143 ft | 432 kts | 190° |
| 2026-05-03 20:41 | 33.05626 | -77.93399 | 34143 ft | 420 kts | 197° |
| 2026-05-03 20:41 | 33.02818 | -77.93845 | 34145 ft | 406 kts | 204° |
| 2026-05-03 20:41 | 33.00066 | -77.94660 | 34146 ft | 400 kts | 207° |
| 2026-05-03 20:42 | 32.94714 | -77.96455 | 34144 ft | 400 kts | 207° |
| 2026-05-03 20:42 | 32.89359 | -77.98272 | 34146 ft | 400 kts | 207° |
| 2026-05-03 20:43 | 32.84001 | -78.00085 | 34144 ft | 400 kts | 207° |
| 2026-05-03 20:43 | 32.78643 | -78.01896 | 34143 ft | 400 kts | 207° |
| 2026-05-03 20:44 | 32.73320 | -78.03692 | 34143 ft | 400 kts | 207° |
| 2026-05-03 20:44 | 32.67963 | -78.05498 | 34143 ft | 400 kts | 207° |
| 2026-05-03 20:45 | 32.62606 | -78.07301 | 34143 ft | 400 kts | 207° |
| 2026-05-03 20:45 | 32.57253 | -78.09101 | 34124 ft | 400 kts | 207° |
| 2026-05-03 20:46 | 32.51908 | -78.10894 | 34146 ft | 399 kts | 207° |
| 2026-05-03 20:46 | 32.46574 | -78.12683 | 34143 ft | 398 kts | 207° |
| 2026-05-03 20:47 | 32.41243 | -78.14469 | 34145 ft | 398 kts | 207° |
| 2026-05-03 20:47 | 32.35910 | -78.16253 | 34143 ft | 398 kts | 207° |
| 2026-05-03 20:48 | 32.30580 | -78.18034 | 34140 ft | 398 kts | 206° |
| 2026-05-03 20:48 | 32.25246 | -78.19814 | 34143 ft | 398 kts | 206° |
| 2026-05-03 20:49 | 32.19916 | -78.21591 | 34140 ft | 398 kts | 206° |
| 2026-05-03 20:49 | 32.14586 | -78.23365 | 34140 ft | 398 kts | 206° |
| 2026-05-03 20:50 | 32.09252 | -78.25138 | 34140 ft | 398 kts | 206° |
| 2026-05-03 20:50 | 32.03922 | -78.26909 | 34141 ft | 399 kts | 205° |
| 2026-05-03 20:51 | 31.98614 | -78.28670 | 34140 ft | 399 kts | 205° |
| 2026-05-03 20:51 | 31.93262 | -78.30443 | 34137 ft | 399 kts | 205° |
| 2026-05-03 20:52 | 31.87913 | -78.32212 | 34142 ft | 399 kts | 205° |
| 2026-05-03 20:52 | 31.83433 | -78.33693 | 34138 ft | 399 kts | 205° |
| 2026-05-03 20:53 | 31.78081 | -78.35460 | 34132 ft | 400 kts | 205° |
| 2026-05-03 20:53 | 31.72710 | -78.37232 | 34135 ft | 401 kts | 205° |
| 2026-05-03 20:54 | 31.67336 | -78.39001 | 34130 ft | 401 kts | 205° |
| 2026-05-03 20:54 | 31.59307 | -78.41642 | 34131 ft | 401 kts | 205° |
| 2026-05-03 20:55 | 31.53933 | -78.43406 | 34083 ft | 401 kts | 205° |
| 2026-05-03 20:55 | 31.48526 | -78.45183 | 34130 ft | 406 kts | 205° |
| 2026-05-03 20:56 | 31.43085 | -78.46964 | 34129 ft | 406 kts | 205° |
| 2026-05-03 20:56 | 31.37639 | -78.48744 | 34129 ft | 406 kts | 205° |
| 2026-05-03 20:57 | 31.32194 | -78.50523 | 34130 ft | 406 kts | 205° |
| 2026-05-03 20:57 | 31.26747 | -78.52301 | 34111 ft | 407 kts | 205° |
| 2026-05-03 20:58 | 31.21263 | -78.54092 | 34125 ft | 411 kts | 205° |
| 2026-05-03 20:58 | 31.15754 | -78.55884 | 34124 ft | 411 kts | 205° |
| 2026-05-03 20:59 | 31.10243 | -78.57675 | 34121 ft | 411 kts | 205° |
| 2026-05-03 20:59 | 31.04729 | -78.59466 | 34121 ft | 411 kts | 205° |
| 2026-05-03 21:00 | 31.00150 | -78.60952 | 34105 ft | 411 kts | 206° |
| 2026-05-03 21:00 | 30.93709 | -78.63039 | 34121 ft | 411 kts | 206° |
| 2026-05-03 21:01 | 30.88203 | -78.64821 | 34116 ft | 411 kts | 206° |
| 2026-05-03 21:01 | 30.82690 | -78.66603 | 34117 ft | 411 kts | 206° |
| 2026-05-03 21:02 | 30.77177 | -78.68383 | 34120 ft | 411 kts | 205° |
| 2026-05-03 21:02 | 30.71660 | -78.70162 | 34106 ft | 411 kts | 205° |
| 2026-05-03 21:03 | 30.66154 | -78.71935 | 34113 ft | 410 kts | 205° |
| 2026-05-03 21:03 | 30.60652 | -78.73706 | 34114 ft | 410 kts | 205° |
| 2026-05-03 21:04 | 30.55150 | -78.75474 | 34106 ft | 410 kts | 205° |
| 2026-05-03 21:04 | 30.49685 | -78.77229 | 34108 ft | 410 kts | 205° |
| 2026-05-03 21:05 | 30.44182 | -78.78993 | 34107 ft | 410 kts | 205° |
| 2026-05-03 21:05 | 30.38686 | -78.80753 | 34107 ft | 410 kts | 205° |
| 2026-05-03 21:06 | 30.33185 | -78.82513 | 34107 ft | 410 kts | 205° |
| 2026-05-03 21:06 | 30.27685 | -78.84270 | 34108 ft | 410 kts | 205° |
| 2026-05-03 21:07 | 30.22186 | -78.86025 | 34108 ft | 410 kts | 205° |
| 2026-05-03 21:07 | 30.16685 | -78.87778 | 34108 ft | 410 kts | 205° |
| 2026-05-03 21:08 | 30.11183 | -78.89530 | 34103 ft | 410 kts | 205° |
| 2026-05-03 21:08 | 30.05681 | -78.91280 | 34103 ft | 410 kts | 205° |
| 2026-05-03 21:09 | 30.00179 | -78.93027 | 34100 ft | 410 kts | 205° |
| 2026-05-03 21:09 | 29.94678 | -78.94773 | 34098 ft | 410 kts | 205° |
| 2026-05-03 21:10 | 29.89178 | -78.96516 | 34098 ft | 410 kts | 205° |
| 2026-05-03 21:10 | 29.83676 | -78.98258 | 34099 ft | 410 kts | 205° |
| 2026-05-03 21:11 | 29.78064 | -78.99696 | 34097 ft | 417 kts | 200° |
| 2026-05-03 21:11 | 29.72320 | -79.00758 | 34097 ft | 418 kts | 199° |
| 2026-05-03 21:12 | 29.66573 | -79.01812 | 34094 ft | 418 kts | 199° |
| 2026-05-03 21:12 | 29.60836 | -79.02868 | 34092 ft | 417 kts | 200° |
| 2026-05-03 21:13 | 29.55112 | -79.03923 | 34091 ft | 417 kts | 200° |
| 2026-05-03 21:13 | 29.49424 | -79.04971 | 34092 ft | 417 kts | 200° |
| 2026-05-03 21:14 | 29.43698 | -79.06023 | 34092 ft | 417 kts | 199° |
| 2026-05-03 21:14 | 29.37964 | -79.07077 | 34089 ft | 418 kts | 199° |
| 2026-05-03 21:15 | 29.32229 | -79.08130 | 34084 ft | 417 kts | 200° |
| 2026-05-03 21:15 | 29.26505 | -79.09180 | 34082 ft | 417 kts | 200° |
| 2026-05-03 21:16 | 29.20774 | -79.10229 | 34084 ft | 417 kts | 200° |
| 2026-05-03 21:16 | 29.15050 | -79.11277 | 34072 ft | 417 kts | 200° |
| 2026-05-03 21:17 | 29.10288 | -79.12147 | 34079 ft | 417 kts | 200° |
| 2026-05-03 21:17 | 29.03611 | -79.13365 | 34074 ft | 414 kts | 200° |
| 2026-05-03 21:18 | 28.97922 | -79.14402 | 34078 ft | 414 kts | 200° |
| 2026-05-03 21:18 | 28.92232 | -79.15439 | 34075 ft | 414 kts | 200° |
| 2026-05-03 21:19 | 28.86545 | -79.16474 | 34075 ft | 414 kts | 200° |
| 2026-05-03 21:19 | 28.80854 | -79.17508 | 34035 ft | 414 kts | 199° |
| 2026-05-03 21:20 | 28.75167 | -79.18541 | 34072 ft | 414 kts | 199° |
| 2026-05-03 21:20 | 28.69475 | -79.19573 | 34066 ft | 414 kts | 199° |
| 2026-05-03 21:21 | 28.63787 | -79.20603 | 34069 ft | 414 kts | 199° |
| 2026-05-03 21:21 | 28.58097 | -79.21632 | 34063 ft | 414 kts | 199° |
| 2026-05-03 21:22 | 28.52405 | -79.22661 | 34015 ft | 414 kts | 199° |
| 2026-05-03 21:22 | 28.46706 | -79.23691 | 34066 ft | 416 kts | 199° |
| 2026-05-03 21:23 | 28.40991 | -79.24721 | 34055 ft | 416 kts | 199° |
| 2026-05-03 21:23 | 28.35317 | -79.25743 | 34062 ft | 416 kts | 199° |
| 2026-05-03 21:24 | 28.29728 | -79.27137 | 34054 ft | 407 kts | 205° |
| 2026-05-03 21:24 | 28.24285 | -79.28906 | 34065 ft | 407 kts | 205° |
| 2026-05-03 21:25 | 28.18832 | -79.30685 | 34057 ft | 409 kts | 205° |
| 2026-05-03 21:25 | 28.13362 | -79.32460 | 34054 ft | 409 kts | 205° |
| 2026-05-03 21:26 | 28.07889 | -79.34233 | 34051 ft | 409 kts | 205° |
| 2026-05-03 21:26 | 28.02420 | -79.36003 | 34050 ft | 409 kts | 205° |
| 2026-05-03 21:27 | 27.96946 | -79.37772 | 34048 ft | 409 kts | 205° |
| 2026-05-03 21:27 | 27.91463 | -79.39542 | 34051 ft | 410 kts | 204° |
| 2026-05-03 21:28 | 27.85972 | -79.41313 | 34045 ft | 411 kts | 204° |
| 2026-05-03 21:28 | 27.80476 | -79.43084 | 34040 ft | 411 kts | 205° |
| 2026-05-03 21:29 | 27.74999 | -79.44846 | 33750 ft | 407 kts | 204° |
| 2026-05-03 21:29 | 27.72276 | -79.45721 | 33488 ft | 407 kts | 204° |
| 2026-05-03 21:29 | 27.69543 | -79.46601 | 33237 ft | 409 kts | 204° |
| 2026-05-03 21:30 | 27.66806 | -79.47481 | 32981 ft | 410 kts | 204° |
| 2026-05-03 21:30 | 27.64074 | -79.48357 | 32455 ft | 406 kts | 204° |
| 2026-05-03 21:30 | 27.61366 | -79.49224 | 31742 ft | 404 kts | 203° |
| 2026-05-03 21:30 | 27.58669 | -79.50089 | 31022 ft | 403 kts | 203° |
| 2026-05-03 21:31 | 27.55998 | -79.50943 | 30565 ft | 395 kts | 203° |
| 2026-05-03 21:31 | 27.53375 | -79.51781 | 30091 ft | 389 kts | 203° |
| 2026-05-03 21:31 | 27.50791 | -79.52607 | 29524 ft | 384 kts | 203° |
| 2026-05-03 21:31 | 27.48240 | -79.53423 | 29063 ft | 378 kts | 203° |
| 2026-05-03 21:32 | 27.45759 | -79.54214 | 28953 ft | 364 kts | 203° |
| 2026-05-03 21:32 | 27.43339 | -79.54987 | 28541 ft | 360 kts | 203° |
| 2026-05-03 21:32 | 27.40934 | -79.55758 | 28083 ft | 359 kts | 203° |
| 2026-05-03 21:32 | 27.38518 | -79.56528 | 27623 ft | 367 kts | 203° |
| 2026-05-03 21:33 | 27.36048 | -79.57317 | 27134 ft | 379 kts | 202° |
| 2026-05-03 21:33 | 27.33471 | -79.58130 | 26627 ft | 380 kts | 202° |
| 2026-05-03 21:33 | 27.30959 | -79.58919 | 26152 ft | 378 kts | 202° |
| 2026-05-03 21:33 | 27.28433 | -79.59712 | 25667 ft | 376 kts | 202° |
| 2026-05-03 21:34 | 27.25922 | -79.60500 | 25190 ft | 374 kts | 202° |
| 2026-05-03 21:34 | 27.23426 | -79.61285 | 24713 ft | 372 kts | 202° |
| 2026-05-03 21:34 | 27.20941 | -79.62067 | 24241 ft | 370 kts | 202° |
| 2026-05-03 21:34 | 27.18469 | -79.62848 | 23770 ft | 368 kts | 202° |
| 2026-05-03 21:35 | 27.16013 | -79.63633 | 23226 ft | 366 kts | 202° |
| 2026-05-03 21:35 | 27.13575 | -79.64413 | 22744 ft | 363 kts | 202° |
| 2026-05-03 21:35 | 27.11151 | -79.65190 | 22272 ft | 361 kts | 202° |
| 2026-05-03 21:35 | 27.08738 | -79.65961 | 21801 ft | 360 kts | 202° |
| 2026-05-03 21:36 | 27.06340 | -79.66754 | 21357 ft | 358 kts | 202° |
| 2026-05-03 21:36 | 27.03949 | -79.67520 | 20900 ft | 357 kts | 201° |
| 2026-05-03 21:36 | 27.01563 | -79.68274 | 20442 ft | 356 kts | 201° |
| 2026-05-03 21:36 | 26.99188 | -79.69025 | 20004 ft | 354 kts | 201° |
| 2026-05-03 21:37 | 26.96822 | -79.69777 | 19537 ft | 352 kts | 201° |
| 2026-05-03 21:37 | 26.94470 | -79.70525 | 19092 ft | 351 kts | 201° |
| 2026-05-03 21:37 | 26.92124 | -79.71272 | 18657 ft | 351 kts | 201° |
| 2026-05-03 21:37 | 26.89775 | -79.72025 | 18164 ft | 350 kts | 201° |
| 2026-05-03 21:38 | 26.87446 | -79.72768 | 17690 ft | 346 kts | 201° |
| 2026-05-03 21:38 | 26.85134 | -79.73501 | 17257 ft | 344 kts | 201° |
| 2026-05-03 21:38 | 26.82836 | -79.74233 | 16816 ft | 343 kts | 201° |
| 2026-05-03 21:38 | 26.80565 | -79.74951 | 16537 ft | 334 kts | 201° |
| 2026-05-03 21:39 | 26.78337 | -79.75654 | 15976 ft | 334 kts | 201° |
| 2026-05-03 21:39 | 26.76114 | -79.76357 | 15484 ft | 331 kts | 200° |
| 2026-05-03 21:39 | 26.74652 | -79.76818 | 15196 ft | 328 kts | 200° |
| 2026-05-03 21:39 | 26.71768 | -79.77728 | 14651 ft | 323 kts | 200° |
| 2026-05-03 21:40 | 26.69631 | -79.78455 | 14247 ft | 320 kts | 203° |
| 2026-05-03 21:40 | 26.67540 | -79.79284 | 13826 ft | 318 kts | 204° |
| 2026-05-03 21:40 | 26.65467 | -79.80131 | 13383 ft | 317 kts | 205° |
| 2026-05-03 21:40 | 26.63398 | -79.80979 | 12969 ft | 316 kts | 204° |
| 2026-05-03 21:41 | 26.61337 | -79.81821 | 12572 ft | 314 kts | 204° |
| 2026-05-03 21:41 | 26.59953 | -79.82386 | 12301 ft | 313 kts | 204° |
| 2026-05-03 21:41 | 26.57912 | -79.83218 | 11901 ft | 312 kts | 204° |
| 2026-05-03 21:41 | 26.55886 | -79.84052 | 11560 ft | 307 kts | 205° |
| 2026-05-03 21:42 | 26.53938 | -79.84929 | 11232 ft | 299 kts | 206° |
| 2026-05-03 21:42 | 26.52043 | -79.85817 | 10742 ft | 299 kts | 207° |
| 2026-05-03 21:42 | 26.50116 | -79.86725 | 10322 ft | 295 kts | 206° |
| 2026-05-03 21:42 | 26.48249 | -79.87602 | 10083 ft | 286 kts | 206° |
| 2026-05-03 21:43 | 26.46430 | -79.88456 | 9651 ft | 283 kts | 207° |
| 2026-05-03 21:43 | 26.44640 | -79.89300 | 9212 ft | 282 kts | 206° |
| 2026-05-03 21:43 | 26.42825 | -79.90153 | 8838 ft | 277 kts | 206° |
| 2026-05-03 21:43 | 26.41077 | -79.90973 | 8494 ft | 275 kts | 206° |
| 2026-05-03 21:44 | 26.39311 | -79.91806 | 8159 ft | 276 kts | 206° |
| 2026-05-03 21:44 | 26.37601 | -79.92745 | 8010 ft | 273 kts | 212° |
| 2026-05-03 21:44 | 26.35954 | -79.93784 | 7994 ft | 273 kts | 213° |
| 2026-05-03 21:44 | 26.34311 | -79.94840 | 7991 ft | 273 kts | 213° |
| 2026-05-03 21:45 | 26.32669 | -79.95897 | 8003 ft | 272 kts | 213° |
| 2026-05-03 21:45 | 26.31025 | -79.96950 | 7917 ft | 272 kts | 213° |
| 2026-05-03 21:45 | 26.29383 | -79.98005 | 7518 ft | 273 kts | 213° |
| 2026-05-03 21:45 | 26.27742 | -79.99061 | 7123 ft | 271 kts | 213° |
| 2026-05-03 21:46 | 26.26114 | -80.00108 | 7004 ft | 270 kts | 212° |
| 2026-05-03 21:46 | 26.24491 | -80.01152 | 6987 ft | 270 kts | 213° |
| 2026-05-03 21:46 | 26.22863 | -80.02198 | 6993 ft | 270 kts | 212° |
| 2026-05-03 21:46 | 26.21234 | -80.03245 | 6993 ft | 270 kts | 213° |
| 2026-05-03 21:47 | 26.19623 | -80.04289 | 6990 ft | 267 kts | 215° |
| 2026-05-03 21:47 | 26.18224 | -80.05607 | 6973 ft | 263 kts | 233° |
| 2026-05-03 21:47 | 26.17379 | -80.07392 | 7003 ft | 261 kts | 249° |
| 2026-05-03 21:47 | 26.16785 | -80.09295 | 6992 ft | 261 kts | 252° |
| 2026-05-03 21:48 | 26.16225 | -80.11210 | 6978 ft | 260 kts | 252° |
| 2026-05-03 21:48 | 26.15658 | -80.13130 | 6997 ft | 261 kts | 252° |
| 2026-05-03 21:48 | 26.15146 | -80.15064 | 6996 ft | 261 kts | 259° |
| 2026-05-03 21:48 | 26.14999 | -80.17076 | 6997 ft | 261 kts | 268° |
| 2026-05-03 21:49 | 26.14991 | -80.19104 | 6930 ft | 263 kts | 269° |
| 2026-05-03 21:49 | 26.15009 | -80.21134 | 6612 ft | 263 kts | 270° |
| 2026-05-03 21:49 | 26.15032 | -80.23188 | 6105 ft | 269 kts | 269° |
| 2026-05-03 21:49 | 26.15045 | -80.25253 | 5825 ft | 264 kts | 269° |
| 2026-05-03 21:50 | 26.15057 | -80.27296 | 5376 ft | 263 kts | 269° |
| 2026-05-03 21:50 | 26.15070 | -80.29328 | 4897 ft | 263 kts | 270° |
| 2026-05-03 21:50 | 26.15082 | -80.31358 | 4473 ft | 261 kts | 270° |
| 2026-05-03 21:50 | 26.15092 | -80.33375 | 4093 ft | 258 kts | 270° |
| 2026-05-03 21:51 | 26.15079 | -80.35360 | 4003 ft | 256 kts | 268° |
| 2026-05-03 21:51 | 26.15047 | -80.37338 | 3985 ft | 255 kts | 268° |
| 2026-05-03 21:51 | 26.15011 | -80.39325 | 3995 ft | 258 kts | 268° |
| 2026-05-03 21:51 | 26.14974 | -80.41323 | 3999 ft | 258 kts | 269° |
| 2026-05-03 21:52 | 26.14937 | -80.43317 | 3992 ft | 258 kts | 268° |
| 2026-05-03 21:52 | 26.14789 | -80.45308 | 3985 ft | 260 kts | 255° |
| 2026-05-03 21:52 | 26.13951 | -80.47069 | 4006 ft | 260 kts | 230° |
| 2026-05-03 21:52 | 26.12471 | -80.48203 | 3989 ft | 263 kts | 201° |
| 2026-05-03 21:53 | 26.10652 | -80.48487 | 4001 ft | 267 kts | 182° |
| 2026-05-03 21:53 | 26.08814 | -80.48201 | 3704 ft | 271 kts | 160° |
| 2026-05-03 21:53 | 26.07337 | -80.46911 | 3234 ft | 278 kts | 124° |
| 2026-05-03 21:53 | 26.06759 | -80.44862 | 3037 ft | 286 kts | 90° |
| 2026-05-03 21:54 | 26.07149 | -80.42763 | 2979 ft | 265 kts | 72° |
| 2026-05-03 21:54 | 26.07625 | -80.40901 | 2987 ft | 236 kts | 77° |
| 2026-05-03 21:54 | 26.07833 | -80.39136 | 3004 ft | 227 kts | 87° |
| 2026-05-03 21:54 | 26.07836 | -80.37407 | 2991 ft | 216 kts | 91° |
| 2026-05-03 21:55 | 26.07814 | -80.35806 | 2972 ft | 200 kts | 91° |
| 2026-05-03 21:55 | 26.07800 | -80.34269 | 2995 ft | 198 kts | 90° |
| 2026-05-03 21:55 | 26.07797 | -80.32739 | 2868 ft | 197 kts | 89° |
| 2026-05-03 21:55 | 26.07789 | -80.31219 | 2589 ft | 198 kts | 90° |
| 2026-05-03 21:56 | 26.07782 | -80.29676 | 2320 ft | 203 kts | 90° |
| 2026-05-03 21:56 | 26.07766 | -80.28091 | 2055 ft | 204 kts | 90° |
| 2026-05-03 21:56 | 26.07757 | -80.26553 | 1772 ft | 193 kts | 89° |
| 2026-05-03 21:56 | 26.07752 | -80.25115 | 1509 ft | 179 kts | 89° |
| 2026-05-03 21:57 | 26.07739 | -80.23770 | 1277 ft | 168 kts | 89° |
| 2026-05-03 21:57 | 26.07731 | -80.22535 | 1069 ft | 151 kts | 88° |
| 2026-05-03 21:57 | 26.07725 | -80.21401 | 840 ft | 144 kts | 88° |
| 2026-05-03 21:57 | 26.07716 | -80.20299 | 644 ft | 141 kts | 88° |
| 2026-05-03 21:58 | 26.07720 | -80.19197 | 475 ft | 144 kts | 89° |
| 2026-05-03 21:58 | 26.07708 | -80.18083 | 307 ft | 140 kts | 84° |
| 2026-05-03 21:58 | 26.07701 | -80.17046 | 157 ft | 128 kts | 85° |
| 2026-05-03 21:58 | 26.07694 | -80.16095 | 26 ft | 106 kts | 93° |